Time;durP1;ratioP1;P1;durP2;ratioP2;P2;SDS_P1;SDS_P2;PMS_P1;PMS_P2;Temp;Humidity;BMP_temperature;BMP_pressure;BME280_temperature;BME280_humidity;BME280_pressure;Samples;Min_cycle;Max_cycle;Signal;HPM_P1;HPM_P2
2021/10/15 00:01:45;;;;;;;2.60;2.40;;;;;;;;;;4992016;28;20201;-73
2021/10/15 00:04:12;;;;;;;4.63;3.22;;;;;;;;;;4992356;28;20256;-72
2021/10/15 00:06:39;;;;;;;3.70;2.08;;;;;;;;;;4992421;28;20201;-71
2021/10/15 00:09:06;;;;;;;3.38;2.85;;;;;;;;;;4988831;28;20574;-71
2021/10/15 00:11:33;;;;;;;3.88;2.80;;;;;;;;;;4992071;28;20217;-72
2021/10/15 00:14:00;;;;;;;3.65;2.40;;;;;;;;;;4991548;28;20224;-71
2021/10/15 00:16:28;;;;;;;3.28;2.45;;;;;;;;;;4987083;28;20666;-71
2021/10/15 00:18:57;;;;;;;4.07;2.58;;;;;;;;;;4980144;28;20723;-71
2021/10/15 00:21:24;;;;;;;3.90;2.70;;;;;;;;;;4991165;28;20676;-71
2021/10/15 00:23:51;;;;;;;4.25;2.40;;;;;;;;;;4989071;28;20197;-74
2021/10/15 00:26:18;;;;;;;2.20;2.00;;;;;;;;;;4991198;28;20213;-71
2021/10/15 00:28:45;;;;;;;5.18;3.08;;;;;;;;;;4977112;28;20194;-73
2021/10/15 00:31:12;;;;;;;2.78;2.05;;;;;;;;;;4984127;28;20624;-71
2021/10/15 00:33:39;;;;;;;3.67;2.22;;;;;;;;;;4985833;28;20730;-73
2021/10/15 00:36:07;;;;;;;2.72;2.15;;;;;;;;;;4991904;28;20252;-71
2021/10/15 00:38:34;;;;;;;3.67;2.67;;;;;;;;;;4990329;28;20205;-71
2021/10/15 00:41:01;;;;;;;4.50;2.10;;;;;;;;;;4985391;28;20240;-72
2021/10/15 00:43:28;;;;;;;3.00;2.70;;;;;;;;;;4991681;28;20210;-71
2021/10/15 00:45:55;;;;;;;4.03;2.83;;;;;;;;;;4992284;28;20263;-73
2021/10/15 00:48:22;;;;;;;3.00;2.80;;;;;;;;;;4992885;28;20201;-71
2021/10/15 00:50:50;;;;;;;2.63;2.17;;;;;;;;;;4996060;28;20657;-71
2021/10/15 00:53:18;;;;;;;3.90;2.55;;;;;;;;;;4988490;28;20209;-72
2021/10/15 00:55:45;;;;;;;5.88;2.45;;;;;;;;;;4988964;28;20220;-72
2021/10/15 00:58:12;;;;;;;4.00;2.30;;;;;;;;;;4993912;28;20715;-72
2021/10/15 01:00:39;;;;;;;4.03;2.20;;;;;;;;;;4995945;28;20209;-73
2021/10/15 01:03:06;;;;;;;2.88;2.50;;;;;;;;;;4985053;28;20202;-71
2021/10/15 01:05:34;;;;;;;4.60;2.50;;;;;;;;;;4990847;28;20653;-73
2021/10/15 01:08:01;;;;;;;3.35;2.30;;;;;;;;;;4994372;28;20206;-71
2021/10/15 01:10:29;;;;;;;3.85;1.83;;;;;;;;;;4995053;28;20228;-73
2021/10/15 01:12:57;;;;;;;3.33;2.70;;;;;;;;;;4994357;28;21137;-72
2021/10/15 01:15:24;;;;;;;3.55;2.63;;;;;;;;;;4995445;28;20205;-73
2021/10/15 01:17:51;;;;;;;2.95;2.33;;;;;;;;;;4991898;28;20205;-71
2021/10/15 01:20:19;;;;;;;6.68;2.30;;;;;;;;;;4994791;28;20263;-72
2021/10/15 01:22:46;;;;;;;2.30;2.10;;;;;;;;;;4990339;28;20601;-72
2021/10/15 01:25:13;;;;;;;2.35;1.85;;;;;;;;;;4989390;28;20309;-71
2021/10/15 01:27:40;;;;;;;4.40;2.55;;;;;;;;;;4991426;28;20198;-72
2021/10/15 01:30:10;;;;;;;3.40;1.80;;;;;;;;;;4992035;28;20224;-72
2021/10/15 01:32:37;;;;;;;4.40;2.90;;;;;;;;;;4985439;28;20584;-72
2021/10/15 01:35:04;;;;;;;3.78;2.35;;;;;;;;;;4989855;28;20198;-71
2021/10/15 01:37:32;;;;;;;6.82;2.25;;;;;;;;;;4992790;28;20202;-78
2021/10/15 01:39:59;;;;;;;2.22;1.80;;;;;;;;;;4985686;28;20731;-71
2021/10/15 01:45:11;;;;;;;2.22;2.03;;;;;;;;;;4993488;28;20240;-74
2021/10/15 01:47:38;;;;;;;2.92;2.08;;;;;;;;;;4988620;28;20201;-73
2021/10/15 01:50:05;;;;;;;3.83;2.60;;;;;;;;;;4995141;28;20197;-74
2021/10/15 01:52:34;;;;;;;3.20;2.20;;;;;;;;;;4993226;28;20224;-74
2021/10/15 01:55:01;;;;;;;3.70;2.30;;;;;;;;;;4981159;28;20677;-75
2021/10/15 01:57:28;;;;;;;4.05;2.25;;;;;;;;;;4993650;28;20201;-74
2021/10/15 01:59:55;;;;;;;2.45;2.25;;;;;;;;;;4994774;28;20255;-76
2021/10/15 02:02:22;;;;;;;3.55;2.20;;;;;;;;;;4980343;28;20661;-73
2021/10/15 02:04:49;;;;;;;6.75;2.30;;;;;;;;;;4992491;28;20252;-74
2021/10/15 02:07:16;;;;;;;3.35;2.10;;;;;;;;;;4987527;28;20732;-72
2021/10/15 02:09:45;;;;;;;3.58;2.28;;;;;;;;;;4994197;28;20202;-74
2021/10/15 02:12:12;;;;;;;2.45;1.85;;;;;;;;;;4994107;28;20221;-73
2021/10/15 02:14:39;;;;;;;2.10;1.77;;;;;;;;;;4994523;28;20201;-73
2021/10/15 02:17:06;;;;;;;2.75;2.10;;;;;;;;;;4985498;28;20219;-73
2021/10/15 02:19:33;;;;;;;3.80;2.20;;;;;;;;;;4993622;28;20205;-73
2021/10/15 02:22:00;;;;;;;2.28;2.00;;;;;;;;;;4992100;28;20248;-74
2021/10/15 02:24:27;;;;;;;4.60;2.20;;;;;;;;;;4988518;28;20676;-72
2021/10/15 02:26:55;;;;;;;3.47;1.85;;;;;;;;;;4994421;28;20206;-72
2021/10/15 02:29:22;;;;;;;2.13;1.50;;;;;;;;;;4993212;28;20205;-74
2021/10/15 02:31:50;;;;;;;2.95;2.05;;;;;;;;;;4987663;28;20264;-74
2021/10/15 02:34:17;;;;;;;3.95;1.70;;;;;;;;;;4993324;28;20661;-73
2021/10/15 02:36:44;;;;;;;3.22;2.40;;;;;;;;;;4993962;28;20213;-74
2021/10/15 02:39:12;;;;;;;2.47;2.28;;;;;;;;;;4978759;28;20214;-73
2021/10/15 02:41:39;;;;;;;3.95;1.95;;;;;;;;;;4989404;28;20321;-74
2021/10/15 02:44:08;;;;;;;4.03;1.92;;;;;;;;;;4993276;28;20209;-74
2021/10/15 02:46:35;;;;;;;2.70;2.50;;;;;;;;;;4989508;28;20231;-72
2021/10/15 02:49:02;;;;;;;3.90;2.10;;;;;;;;;;4994024;28;20205;-75
2021/10/15 02:51:29;;;;;;;2.80;2.42;;;;;;;;;;4992724;28;20256;-73
2021/10/15 02:53:56;;;;;;;2.50;2.17;;;;;;;;;;4991757;28;20205;-73
2021/10/15 02:56:23;;;;;;;2.17;1.88;;;;;;;;;;4993735;28;20276;-74
2021/10/15 02:58:50;;;;;;;2.53;2.10;;;;;;;;;;4992756;28;20201;-74
2021/10/15 03:01:18;;;;;;;2.78;2.42;;;;;;;;;;4989022;28;20212;-73
2021/10/15 03:03:46;;;;;;;3.22;2.10;;;;;;;;;;4984073;28;20244;-73
2021/10/15 03:06:13;;;;;;;3.55;2.42;;;;;;;;;;4993409;28;20276;-73
2021/10/15 03:08:40;;;;;;;2.20;2.00;;;;;;;;;;4981455;28;20206;-72
2021/10/15 03:11:07;;;;;;;3.05;2.22;;;;;;;;;;4977582;28;20618;-74
2021/10/15 03:13:34;;;;;;;6.22;2.30;;;;;;;;;;4991090;28;20620;-72
2021/10/15 03:16:02;;;;;;;2.67;2.05;;;;;;;;;;4986197;28;20199;-73
2021/10/15 03:18:31;;;;;;;6.15;2.13;;;;;;;;;;4978367;28;20206;-72
2021/10/15 03:20:58;;;;;;;5.82;2.20;;;;;;;;;;4974028;28;20210;-72
2021/10/15 03:23:25;;;;;;;5.60;1.95;;;;;;;;;;4976901;28;20194;-75
2021/10/15 03:25:52;;;;;;;5.95;2.00;;;;;;;;;;4980824;28;20210;-72
2021/10/15 03:28:19;;;;;;;5.57;2.30;;;;;;;;;;4982974;28;20264;-72
2021/10/15 03:30:46;;;;;;;2.80;1.60;;;;;;;;;;4991178;28;20221;-72
2021/10/15 03:33:13;;;;;;;2.60;1.95;;;;;;;;;;4992292;28;20645;-73
2021/10/15 03:35:41;;;;;;;4.13;2.55;;;;;;;;;;4992832;28;20664;-72
2021/10/15 03:38:08;;;;;;;6.68;2.47;;;;;;;;;;4991538;28;20616;-73
2021/10/15 03:40:35;;;;;;;3.90;2.42;;;;;;;;;;4983030;28;20198;-73
2021/10/15 03:43:02;;;;;;;2.80;2.28;;;;;;;;;;4983453;28;20268;-73
2021/10/15 03:45:29;;;;;;;3.42;2.25;;;;;;;;;;4991795;28;20222;-74
2021/10/15 03:47:56;;;;;;;2.30;1.92;;;;;;;;;;4991670;28;20197;-72
2021/10/15 03:50:24;;;;;;;3.60;2.58;;;;;;;;;;4992394;28;20213;-74
2021/10/15 03:52:52;;;;;;;3.70;2.63;;;;;;;;;;4990812;28;20218;-72
2021/10/15 03:55:19;;;;;;;2.63;2.42;;;;;;;;;;4992638;28;20680;-72
2021/10/15 03:57:46;;;;;;;3.38;2.13;;;;;;;;;;4992369;28;20205;-73
2021/10/15 04:00:14;;;;;;;3.17;2.45;;;;;;;;;;4991450;28;20264;-72
2021/10/15 04:02:41;;;;;;;4.75;2.65;;;;;;;;;;4992295;28;20308;-73
2021/10/15 04:05:10;;;;;;;2.83;1.90;;;;;;;;;;4993307;28;20209;-74
2021/10/15 04:07:37;;;;;;;3.85;2.30;;;;;;;;;;4987408;28;20624;-74
2021/10/15 04:10:07;;;;;;;7.38;2.10;;;;;;;;;;4973585;28;20539;-74
2021/10/15 04:12:34;;;;;;;3.70;2.53;;;;;;;;;;4989188;28;20221;-72
2021/10/15 04:15:01;;;;;;;3.17;2.50;;;;;;;;;;4992152;28;20193;-72
2021/10/15 04:17:28;;;;;;;2.42;2.20;;;;;;;;;;4985256;28;20205;-73
2021/10/15 04:19:55;;;;;;;2.85;2.65;;;;;;;;;;4992008;28;20727;-72
2021/10/15 04:22:24;;;;;;;3.72;2.90;;;;;;;;;;4991046;28;20484;-73
2021/10/15 04:24:51;;;;;;;4.30;2.80;;;;;;;;;;4991236;28;20255;-72
2021/10/15 04:27:20;;;;;;;3.25;2.25;;;;;;;;;;4988642;28;20578;-75
2021/10/15 04:29:47;;;;;;;3.03;2.25;;;;;;;;;;4972963;28;20251;-73
2021/10/15 04:32:14;;;;;;;2.85;2.20;;;;;;;;;;4979790;28;20206;-72
2021/10/15 04:34:41;;;;;;;3.75;2.35;;;;;;;;;;4984857;28;20247;-74
2021/10/15 04:37:08;;;;;;;5.22;2.50;;;;;;;;;;4987221;28;20657;-72
2021/10/15 04:39:35;;;;;;;3.95;2.72;;;;;;;;;;4988888;28;20202;-74
2021/10/15 04:42:02;;;;;;;2.28;2.08;;;;;;;;;;4991201;28;20197;-72
2021/10/15 04:44:30;;;;;;;2.38;2.10;;;;;;;;;;4991202;28;20680;-74
2021/10/15 04:46:57;;;;;;;3.67;3.17;;;;;;;;;;4987675;28;20213;-73
2021/10/15 04:49:24;;;;;;;5.82;2.72;;;;;;;;;;4978326;28;20201;-72
2021/10/15 04:51:51;;;;;;;4.50;2.97;;;;;;;;;;4989458;28;20197;-72
2021/10/15 04:54:18;;;;;;;3.58;3.15;;;;;;;;;;4975474;28;20218;-72
2021/10/15 04:56:45;;;;;;;5.85;2.90;;;;;;;;;;4976043;28;20205;-72
2021/10/15 04:59:13;;;;;;;10.05;2.55;;;;;;;;;;4990213;28;20219;-73
2021/10/15 05:01:41;;;;;;;3.35;2.30;;;;;;;;;;4990052;28;20201;-73
2021/10/15 05:04:08;;;;;;;3.05;2.75;;;;;;;;;;4986207;28;20193;-73
2021/10/15 05:06:35;;;;;;;3.58;3.08;;;;;;;;;;4992655;28;20608;-72
2021/10/15 05:09:15;;;;;;;4.30;2.80;;;;;;;;;;4991287;28;20241;-73
2021/10/15 05:11:46;;;;;;;4.55;2.30;;;;;;;;;;4991280;28;20213;-73
2021/10/15 05:14:13;;;;;;;3.35;2.55;;;;;;;;;;4991433;28;20222;-73
2021/10/15 05:16:42;;;;;;;4.78;3.38;;;;;;;;;;4991686;28;20671;-74
2021/10/15 05:19:09;;;;;;;4.13;2.83;;;;;;;;;;4990346;28;20206;-73
2021/10/15 05:21:36;;;;;;;3.97;3.20;;;;;;;;;;4990811;28;20206;-73
2021/10/15 05:24:03;;;;;;;2.65;2.42;;;;;;;;;;4989646;28;20210;-73
2021/10/15 05:26:30;;;;;;;6.57;3.20;;;;;;;;;;4990480;28;20217;-73
2021/10/15 05:28:57;;;;;;;3.15;2.85;;;;;;;;;;4991224;28;20206;-74
2021/10/15 05:31:24;;;;;;;3.53;3.03;;;;;;;;;;4992726;28;20272;-74
2021/10/15 05:33:52;;;;;;;5.70;3.90;;;;;;;;;;4988541;28;20217;-74
2021/10/15 05:36:19;;;;;;;5.35;3.88;;;;;;;;;;4993931;28;20212;-73
2021/10/15 05:38:46;;;;;;;4.20;2.92;;;;;;;;;;4992799;28;20703;-74
2021/10/15 05:41:14;;;;;;;4.53;3.58;;;;;;;;;;4994667;28;20611;-74
2021/10/15 05:43:41;;;;;;;4.65;2.65;;;;;;;;;;4995308;28;20228;-74
2021/10/15 05:46:08;;;;;;;3.55;3.25;;;;;;;;;;4993388;28;20198;-74
2021/10/15 05:48:35;;;;;;;4.10;3.70;;;;;;;;;;4994349;28;20608;-74
2021/10/15 05:51:03;;;;;;;4.65;3.30;;;;;;;;;;4994813;28;20197;-73
2021/10/15 05:53:32;;;;;;;3.30;3.00;;;;;;;;;;4991613;28;20595;-74
2021/10/15 05:56:22;;;;;;;3.38;3.08;;;;;;;;;;4989309;28;20587;-75
2021/10/15 05:58:49;;;;;;;5.00;3.40;;;;;;;;;;4989087;28;20212;-75
2021/10/15 06:01:16;;;;;;;3.30;2.67;;;;;;;;;;4986180;28;20202;-77
2021/10/15 06:03:47;;;;;;;4.47;3.42;;;;;;;;;;4986700;28;20194;-73
2021/10/15 06:14:28;;;;;;;3.50;3.20;;;;;;;;;;4994822;28;20274;-74
2021/10/15 06:16:59;;;;;;;4.22;3.10;;;;;;;;;;4992823;28;20209;-76
2021/10/15 06:19:27;;;;;;;4.50;2.97;;;;;;;;;;4991554;28;20197;-74
2021/10/15 06:21:56;;;;;;;6.85;3.67;;;;;;;;;;4994437;28;20229;-74
2021/10/15 06:24:23;;;;;;;3.92;3.60;;;;;;;;;;4994246;28;20194;-75
2021/10/15 06:26:50;;;;;;;4.47;2.75;;;;;;;;;;4989161;28;20624;-75
2021/10/15 06:29:17;;;;;;;3.63;3.25;;;;;;;;;;4990563;28;20205;-73
2021/10/15 06:31:44;;;;;;;5.45;3.60;;;;;;;;;;4991239;28;20229;-74
2021/10/15 06:34:11;;;;;;;7.65;4.03;;;;;;;;;;4994914;28;20280;-76
2021/10/15 06:36:39;;;;;;;4.03;2.70;;;;;;;;;;4994908;28;20910;-75
2021/10/15 06:39:08;;;;;;;3.92;3.50;;;;;;;;;;4979959;28;20731;-76
2021/10/15 06:41:35;;;;;;;10.32;4.78;;;;;;;;;;4985433;28;20581;-75
2021/10/15 06:44:02;;;;;;;5.22;3.42;;;;;;;;;;4990561;28;20653;-75
2021/10/15 06:46:29;;;;;;;3.15;2.85;;;;;;;;;;4984554;28;20294;-75
2021/10/15 06:48:56;;;;;;;3.70;3.30;;;;;;;;;;4992398;28;20202;-76
2021/10/15 06:51:23;;;;;;;4.18;3.40;;;;;;;;;;4991540;28;20201;-76
2021/10/15 06:53:50;;;;;;;5.40;3.08;;;;;;;;;;4991599;28;20214;-76
2021/10/15 06:56:18;;;;;;;3.53;3.22;;;;;;;;;;4993163;28;20652;-75
2021/10/15 06:58:46;;;;;;;3.45;2.78;;;;;;;;;;4993087;28;20194;-74
2021/10/15 07:01:13;;;;;;;4.03;3.28;;;;;;;;;;4988347;28;20269;-76
2021/10/15 07:03:40;;;;;;;5.10;3.50;;;;;;;;;;4987876;28;20190;-75
2021/10/15 07:06:07;;;;;;;4.45;3.90;;;;;;;;;;4992067;28;20194;-74
2021/10/15 07:08:34;;;;;;;4.32;3.42;;;;;;;;;;4990901;28;20205;-74
2021/10/15 07:11:01;;;;;;;4.22;2.60;;;;;;;;;;4988755;28;20194;-74
2021/10/15 07:13:29;;;;;;;11.93;6.20;;;;;;;;;;4983880;28;20739;-74
2021/10/15 07:15:56;;;;;;;9.18;6.03;;;;;;;;;;4991535;28;20252;-75
2021/10/15 07:18:23;;;;;;;9.20;5.95;;;;;;;;;;4991742;28;20255;-73
2021/10/15 07:20:50;;;;;;;12.57;5.72;;;;;;;;;;4991985;28;20201;-74
2021/10/15 07:23:18;;;;;;;9.57;6.80;;;;;;;;;;4984065;28;20198;-72
2021/10/15 07:25:46;;;;;;;12.45;5.68;;;;;;;;;;4991683;28;20582;-72
2021/10/15 07:28:14;;;;;;;13.20;7.22;;;;;;;;;;4993178;28;20711;-73
2021/10/15 07:30:42;;;;;;;15.95;6.40;;;;;;;;;;4992276;28;20228;-72
2021/10/15 07:33:09;;;;;;;8.98;6.20;;;;;;;;;;4991519;28;20468;-72
2021/10/15 07:35:36;;;;;;;9.38;5.95;;;;;;;;;;4990310;28;20943;-72
2021/10/15 07:38:03;;;;;;;8.32;5.55;;;;;;;;;;4989453;28;20557;-73
2021/10/15 07:40:30;;;;;;;9.32;4.82;;;;;;;;;;4992081;28;20259;-74
2021/10/15 07:42:57;;;;;;;9.70;6.22;;;;;;;;;;4991849;28;20236;-73
2021/10/15 07:45:26;;;;;;;11.85;6.45;;;;;;;;;;4993062;28;20204;-73
2021/10/15 07:47:54;;;;;;;6.65;5.32;;;;;;;;;;4986468;28;20208;-71
2021/10/15 07:50:21;;;;;;;5.78;4.50;;;;;;;;;;4992315;28;20198;-72
2021/10/15 07:52:49;;;;;;;7.30;5.45;;;;;;;;;;4986618;28;20202;-71
2021/10/15 07:55:16;;;;;;;8.00;5.40;;;;;;;;;;4991092;28;20255;-72
2021/10/15 07:57:43;;;;;;;5.18;4.63;;;;;;;;;;4993012;28;20357;-73
2021/10/15 08:00:11;;;;;;;8.02;4.88;;;;;;;;;;4992777;28;20624;-72
2021/10/15 08:02:38;;;;;;;8.23;4.75;;;;;;;;;;4986635;28;20204;-72
2021/10/15 08:05:07;;;;;;;5.20;4.10;;;;;;;;;;4985848;28;20201;-75
2021/10/15 08:07:35;;;;;;;7.15;4.50;;;;;;;;;;4986600;28;20197;-72
2021/10/15 08:10:02;;;;;;;4.90;4.13;;;;;;;;;;4990064;28;20244;-72
2021/10/15 08:12:29;;;;;;;7.00;4.25;;;;;;;;;;4991945;28;20554;-73
2021/10/15 08:14:56;;;;;;;5.47;4.40;;;;;;;;;;4989163;28;20558;-72
2021/10/15 08:17:23;;;;;;;6.82;5.50;;;;;;;;;;4984770;28;20221;-72
2021/10/15 08:19:50;;;;;;;7.35;4.30;;;;;;;;;;4991641;28;20206;-72
2021/10/15 08:22:19;;;;;;;8.60;5.20;;;;;;;;;;4991274;28;20672;-72
2021/10/15 08:24:46;;;;;;;4.40;4.00;;;;;;;;;;4991201;28;20197;-71
2021/10/15 08:27:13;;;;;;;5.00;3.97;;;;;;;;;;4989846;28;20209;-71
2021/10/15 08:29:40;;;;;;;6.22;4.30;;;;;;;;;;4991259;28;20229;-72
2021/10/15 08:32:08;;;;;;;7.47;4.20;;;;;;;;;;4984225;28;20744;-72
2021/10/15 08:34:36;;;;;;;4.28;3.85;;;;;;;;;;4992014;28;20604;-72
2021/10/15 08:37:03;;;;;;;5.20;4.43;;;;;;;;;;4991231;28;20197;-71
2021/10/15 08:39:31;;;;;;;5.90;4.10;;;;;;;;;;4993085;28;20573;-71
2021/10/15 08:41:59;;;;;;;8.02;4.50;;;;;;;;;;4991654;28;20197;-71
2021/10/15 08:44:33;;;;;;;5.18;3.75;;;;;;;;;;4987706;28;20197;-71
2021/10/15 08:47:00;;;;;;;4.10;3.55;;;;;;;;;;4988802;28;20197;-71
2021/10/15 08:49:27;;;;;;;4.25;3.85;;;;;;;;;;4986647;28;20247;-71
2021/10/15 08:51:54;;;;;;;9.13;4.43;;;;;;;;;;4991542;28;20240;-72
2021/10/15 08:54:21;;;;;;;7.40;3.38;;;;;;;;;;4981615;28;20268;-70
2021/10/15 08:56:49;;;;;;;4.28;3.45;;;;;;;;;;4987866;28;20687;-71
2021/10/15 08:59:21;;;;;;;7.82;3.20;;;;;;;;;;4991103;28;20201;-70
2021/10/15 09:01:48;;;;;;;5.20;3.67;;;;;;;;;;4983439;28;20221;-72
2021/10/15 09:04:18;;;;;;;4.75;3.70;;;;;;;;;;4991507;28;20190;-71
2021/10/15 09:06:45;;;;;;;5.10;3.60;;;;;;;;;;4993317;28;20715;-71
2021/10/15 09:09:12;;;;;;;8.57;4.57;;;;;;;;;;4979487;28;20210;-72
2021/10/15 09:11:41;;;;;;;9.00;4.13;;;;;;;;;;4976106;28;20213;-71
2021/10/15 09:14:11;;;;;;;5.65;3.42;;;;;;;;;;4976077;28;20280;-72
2021/10/15 09:16:54;;;;;;;3.90;3.60;;;;;;;;;;4980234;28;20681;-71
2021/10/15 09:19:25;;;;;;;7.28;3.97;;;;;;;;;;4993772;28;20584;-71
2021/10/15 09:22:03;;;;;;;4.97;3.03;;;;;;;;;;4994919;28;20213;-71
2021/10/15 09:24:36;;;;;;;4.78;3.50;;;;;;;;;;4993590;28;20231;-71
2021/10/15 09:27:14;;;;;;;3.15;2.55;;;;;;;;;;4995049;28;20308;-71
2021/10/15 09:29:43;;;;;;;3.45;3.15;;;;;;;;;;4995244;28;21364;-71
2021/10/15 09:32:10;;;;;;;4.85;4.00;;;;;;;;;;4992553;28;20209;-71
2021/10/15 09:34:38;;;;;;;4.35;3.58;;;;;;;;;;4975881;28;20225;-70
2021/10/15 09:37:11;;;;;;;4.35;3.28;;;;;;;;;;4975932;28;20208;-71
2021/10/15 09:39:38;;;;;;;5.45;3.40;;;;;;;;;;4993093;28;20624;-70
2021/10/15 09:42:05;;;;;;;3.70;3.30;;;;;;;;;;4989466;28;20248;-73
2021/10/15 09:44:33;;;;;;;4.43;3.40;;;;;;;;;;4994819;28;20715;-71
2021/10/15 09:47:18;;;;;;;3.35;3.05;;;;;;;;;;4995119;28;20704;-73
2021/10/15 09:49:53;;;;;;;2.90;2.67;;;;;;;;;;4975743;28;20198;-72
2021/10/15 09:52:24;;;;;;;3.40;3.08;;;;;;;;;;4990007;28;20204;-71
2021/10/15 09:54:55;;;;;;;3.97;3.10;;;;;;;;;;4991900;28;20689;-71
2021/10/15 09:57:28;;;;;;;3.35;2.60;;;;;;;;;;4991738;28;20593;-71
2021/10/15 09:59:55;;;;;;;3.70;2.85;;;;;;;;;;4994403;28;20209;-73
2021/10/15 10:02:24;;;;;;;4.15;2.75;;;;;;;;;;4993943;28;20205;-71
2021/10/15 10:04:51;;;;;;;3.35;2.95;;;;;;;;;;4994107;28;20198;-71
2021/10/15 10:07:19;;;;;;;3.05;2.55;;;;;;;;;;4983528;28;20198;-72
2021/10/15 10:09:46;;;;;;;3.33;3.05;;;;;;;;;;4986480;28;20201;-71
2021/10/15 10:12:13;;;;;;;3.85;2.17;;;;;;;;;;4993464;28;20565;-71
2021/10/15 10:14:40;;;;;;;2.70;2.30;;;;;;;;;;4993403;28;20229;-74
2021/10/15 10:17:08;;;;;;;3.55;2.30;;;;;;;;;;4993778;28;20641;-71
2021/10/15 10:19:37;;;;;;;4.70;3.03;;;;;;;;;;4993752;28;20198;-71
2021/10/15 10:22:04;;;;;;;2.83;2.47;;;;;;;;;;4994366;28;20641;-72
2021/10/15 10:24:33;;;;;;;3.20;2.08;;;;;;;;;;4975892;28;20234;-72
2021/10/15 10:27:00;;;;;;;4.15;2.17;;;;;;;;;;4975004;28;20206;-71
2021/10/15 10:29:28;;;;;;;4.82;2.67;;;;;;;;;;4985826;28;20601;-71
2021/10/15 10:32:13;;;;;;;2.67;2.40;;;;;;;;;;4991177;28;20220;-71
2021/10/15 10:34:42;;;;;;;2.33;2.13;;;;;;;;;;4974973;28;20635;-71
2021/10/15 10:37:10;;;;;;;3.05;2.47;;;;;;;;;;4974812;28;20213;-72
2021/10/15 10:39:37;;;;;;;2.47;2.00;;;;;;;;;;4975328;28;20272;-71
2021/10/15 10:42:05;;;;;;;2.15;1.90;;;;;;;;;;4978698;28;20201;-72
2021/10/15 10:44:34;;;;;;;3.97;1.75;;;;;;;;;;4993081;28;20197;-72
2021/10/15 10:47:15;;;;;;;2.15;1.95;;;;;;;;;;4992740;28;20259;-73
2021/10/15 10:50:05;;;;;;;2.05;1.60;;;;;;;;;;4992275;28;20263;-71
2021/10/15 10:52:32;;;;;;;2.28;1.58;;;;;;;;;;4991336;28;20793;-70
2021/10/15 10:54:59;;;;;;;2.10;1.80;;;;;;;;;;4987703;28;20217;-70
2021/10/15 10:57:28;;;;;;;2.22;1.67;;;;;;;;;;4993968;28;20198;-71
2021/10/15 11:00:18;;;;;;;1.30;1.13;;;;;;;;;;4993354;28;20202;-72
2021/10/15 11:02:46;;;;;;;1.88;1.77;;;;;;;;;;4993628;28;20201;-71
2021/10/15 11:05:14;;;;;;;1.70;1.55;;;;;;;;;;4991947;28;20233;-73
2021/10/15 11:07:41;;;;;;;1.20;1.10;;;;;;;;;;4989095;28;20198;-72
2021/10/15 11:10:22;;;;;;;2.10;1.50;;;;;;;;;;4974270;28;20609;-71
2021/10/15 11:12:59;;;;;;;2.80;1.25;;;;;;;;;;4973855;28;20202;-72
2021/10/15 11:15:29;;;;;;;1.42;1.33;;;;;;;;;;4973952;28;20232;-71
2021/10/15 11:17:56;;;;;;;1.63;1.00;;;;;;;;;;4992550;28;20292;-71
2021/10/15 11:20:25;;;;;;;3.97;1.60;;;;;;;;;;4992832;28;20210;-73
2021/10/15 11:22:54;;;;;;;1.98;1.48;;;;;;;;;;4992089;28;20212;-71
2021/10/15 11:25:22;;;;;;;1.30;1.15;;;;;;;;;;4993014;28;20297;-71
2021/10/15 11:27:50;;;;;;;2.33;1.30;;;;;;;;;;4993673;28;20626;-71
2021/10/15 11:30:17;;;;;;;1.10;0.80;;;;;;;;;;4992491;28;20244;-71
2021/10/15 11:32:45;;;;;;;1.83;1.20;;;;;;;;;;4987182;28;20657;-71
2021/10/15 11:35:17;;;;;;;4.50;1.77;;;;;;;;;;4990103;28;20221;-72
2021/10/15 11:37:49;;;;;;;3.03;1.08;;;;;;;;;;4990509;28;20541;-71
2021/10/15 11:40:18;;;;;;;1.83;1.05;;;;;;;;;;4993245;28;20538;-71
2021/10/15 11:42:45;;;;;;;1.90;1.45;;;;;;;;;;4991856;28;20688;-71
2021/10/15 11:45:26;;;;;;;1.95;1.20;;;;;;;;;;4992247;28;20664;-70
2021/10/15 11:47:59;;;;;;;1.50;1.20;;;;;;;;;;4985252;28;20201;-71
2021/10/15 11:50:47;;;;;;;1.17;1.00;;;;;;;;;;4992929;28;20691;-71
2021/10/15 11:53:17;;;;;;;1.20;1.10;;;;;;;;;;4984674;28;20592;-71
2021/10/15 11:55:45;;;;;;;1.58;1.27;;;;;;;;;;4992796;28;20521;-73
2021/10/15 11:58:16;;;;;;;2.72;1.38;;;;;;;;;;4992784;28;20201;-73
2021/10/15 12:00:54;;;;;;;3.80;1.27;;;;;;;;;;4990971;28;20200;-70
2021/10/15 12:03:24;;;;;;;2.08;1.33;;;;;;;;;;4989138;28;20293;-71
2021/10/15 12:05:51;;;;;;;1.50;0.90;;;;;;;;;;4990484;28;20243;-71
2021/10/15 12:08:20;;;;;;;2.35;1.20;;;;;;;;;;4990686;28;20205;-73
2021/10/15 12:10:47;;;;;;;2.40;0.90;;;;;;;;;;4990467;28;20204;-71
2021/10/15 12:13:14;;;;;;;1.85;1.20;;;;;;;;;;4991781;28;20198;-71
2021/10/15 12:15:41;;;;;;;1.60;1.00;;;;;;;;;;4990147;28;20271;-71
2021/10/15 12:18:09;;;;;;;1.05;0.90;;;;;;;;;;4989229;28;20197;-72
2021/10/15 12:20:36;;;;;;;3.88;1.10;;;;;;;;;;4992410;28;20193;-70
2021/10/15 12:23:04;;;;;;;2.75;1.17;;;;;;;;;;4984910;28;20700;-71
2021/10/15 12:25:32;;;;;;;2.55;0.98;;;;;;;;;;4972981;28;20206;-72
2021/10/15 12:27:59;;;;;;;1.73;1.00;;;;;;;;;;4989587;28;20253;-71
2021/10/15 12:30:26;;;;;;;1.48;1.10;;;;;;;;;;4992272;28;20234;-71
2021/10/15 12:32:54;;;;;;;1.20;0.95;;;;;;;;;;4982186;28;20209;-71
2021/10/15 12:35:24;;;;;;;1.13;1.02;;;;;;;;;;4981465;28;20225;-73
2021/10/15 12:37:55;;;;;;;4.07;1.30;;;;;;;;;;4992067;28;20244;-71
2021/10/15 12:40:24;;;;;;;1.70;0.88;;;;;;;;;;4991146;28;20716;-71
2021/10/15 12:43:05;;;;;;;3.55;1.50;;;;;;;;;;4988714;28;20197;-73
2021/10/15 12:45:33;;;;;;;2.97;1.40;;;;;;;;;;4992103;28;20660;-72
2021/10/15 12:48:00;;;;;;;3.15;0.90;;;;;;;;;;4979573;28;20206;-70
2021/10/15 12:50:28;;;;;;;1.40;1.00;;;;;;;;;;4977367;28;20201;-72
2021/10/15 12:52:55;;;;;;;1.75;0.82;;;;;;;;;;4984275;28;20201;-71
2021/10/15 12:55:23;;;;;;;2.25;1.08;;;;;;;;;;4989913;28;20221;-72
2021/10/15 12:57:51;;;;;;;1.23;1.00;;;;;;;;;;4981281;28;20245;-72
2021/10/15 13:00:22;;;;;;;3.05;1.20;;;;;;;;;;4991155;28;20268;-72
2021/10/15 13:03:01;;;;;;;2.58;1.00;;;;;;;;;;4991332;28;20664;-72
2021/10/15 13:05:28;;;;;;;1.08;0.93;;;;;;;;;;4991524;28;20209;-73
2021/10/15 13:07:55;;;;;;;1.48;1.00;;;;;;;;;;4990173;28;20476;-73
2021/10/15 13:10:24;;;;;;;1.42;0.90;;;;;;;;;;4988122;28;20272;-73
2021/10/15 13:12:52;;;;;;;1.90;0.85;;;;;;;;;;4991303;28;20255;-72
2021/10/15 13:15:21;;;;;;;2.75;1.10;;;;;;;;;;4988126;28;20264;-72
2021/10/15 13:17:50;;;;;;;2.42;1.13;;;;;;;;;;4982160;28;20206;-72
2021/10/15 13:20:17;;;;;;;3.63;1.10;;;;;;;;;;4987962;28;20206;-72
2021/10/15 13:22:45;;;;;;;8.13;1.23;;;;;;;;;;4989782;28;20241;-73
2021/10/15 13:25:12;;;;;;;3.45;0.90;;;;;;;;;;4991396;28;20267;-72
2021/10/15 13:27:39;;;;;;;2.42;0.90;;;;;;;;;;4989939;28;20649;-71
2021/10/15 13:30:08;;;;;;;1.60;1.05;;;;;;;;;;4988310;28;20580;-72
2021/10/15 13:32:36;;;;;;;1.88;0.82;;;;;;;;;;4989045;28;20206;-73
2021/10/15 13:35:04;;;;;;;2.25;1.40;;;;;;;;;;4990877;28;20244;-72
2021/10/15 13:37:34;;;;;;;1.00;0.80;;;;;;;;;;4979575;28;20545;-73
2021/10/15 13:40:02;;;;;;;1.75;0.88;;;;;;;;;;4989765;28;20226;-72
2021/10/15 13:43:00;;;;;;;1.88;0.85;;;;;;;;;;4990378;28;20233;-72
2021/10/15 13:45:44;;;;;;;3.38;1.05;;;;;;;;;;4990549;28;20240;-73
2021/10/15 13:50:57;;;;;;;4.43;1.10;;;;;;;;;;4986171;28;20565;-73
2021/10/15 13:53:26;;;;;;;4.03;1.08;;;;;;;;;;4989816;28;20205;-72
2021/10/15 13:55:55;;;;;;;2.63;1.20;;;;;;;;;;4990253;28;20310;-72
2021/10/15 13:58:26;;;;;;;1.40;0.73;;;;;;;;;;4992580;28;20198;-72
2021/10/15 14:00:58;;;;;;;1.20;1.10;;;;;;;;;;4993048;28;20197;-73
2021/10/15 14:03:52;;;;;;;2.58;1.02;;;;;;;;;;4993472;28;20205;-71
2021/10/15 14:06:20;;;;;;;1.40;1.10;;;;;;;;;;4993516;28;20726;-72
2021/10/15 14:08:47;;;;;;;2.55;1.15;;;;;;;;;;4987290;28;20201;-73
2021/10/15 14:11:16;;;;;;;1.15;0.80;;;;;;;;;;4993921;28;20260;-72
2021/10/15 14:13:44;;;;;;;2.47;1.38;;;;;;;;;;4994127;28;20202;-74
2021/10/15 14:16:13;;;;;;;1.20;1.00;;;;;;;;;;4990472;28;20514;-72
2021/10/15 14:18:41;;;;;;;1.95;0.70;;;;;;;;;;4996426;28;20201;-72
2021/10/15 14:21:08;;;;;;;1.75;1.30;;;;;;;;;;4991743;28;20248;-72
2021/10/15 14:23:37;;;;;;;5.90;2.15;;;;;;;;;;4991141;28;20205;-72
2021/10/15 14:26:05;;;;;;;1.55;0.85;;;;;;;;;;4996224;28;20268;-72
2021/10/15 14:28:32;;;;;;;1.90;0.80;;;;;;;;;;4988810;28;20208;-72
2021/10/15 14:31:00;;;;;;;2.47;1.38;;;;;;;;;;4994213;28;20226;-72
2021/10/15 14:33:28;;;;;;;3.03;0.90;;;;;;;;;;4990670;28;20672;-75
2021/10/15 14:35:56;;;;;;;2.80;1.25;;;;;;;;;;4991172;28;20964;-72
2021/10/15 14:38:23;;;;;;;1.08;0.80;;;;;;;;;;4990738;28;20612;-72
2021/10/15 14:40:50;;;;;;;1.60;1.00;;;;;;;;;;4988087;28;20248;-72
2021/10/15 14:43:17;;;;;;;2.88;1.05;;;;;;;;;;4993624;28;20660;-72
2021/10/15 14:45:44;;;;;;;2.17;0.90;;;;;;;;;;4994093;28;20550;-72
2021/10/15 14:48:11;;;;;;;4.22;1.25;;;;;;;;;;4990122;28;20492;-72
2021/10/15 14:50:38;;;;;;;1.48;0.90;;;;;;;;;;4993151;28;20197;-71
2021/10/15 14:53:07;;;;;;;2.30;1.00;;;;;;;;;;4985692;28;20617;-72
2021/10/15 14:55:34;;;;;;;2.35;1.05;;;;;;;;;;4988427;28;20225;-74
2021/10/15 14:58:01;;;;;;;1.60;0.90;;;;;;;;;;4993050;28;20296;-71
2021/10/15 15:00:28;;;;;;;1.30;0.95;;;;;;;;;;4992523;28;21517;-73
2021/10/15 15:02:55;;;;;;;1.15;0.90;;;;;;;;;;4988260;28;20645;-73
2021/10/15 15:05:22;;;;;;;2.70;1.05;;;;;;;;;;4989548;28;20209;-72